createdAt,value
2017-06-09T00:00:29.556Z,97.52
2017-06-09T00:01:29.229Z,97.47
2017-06-09T00:02:29.521Z,97.42
2017-06-09T00:03:29.222Z,97.52
2017-06-09T00:04:29.496Z,97.62
2017-06-09T00:05:29.175Z,97.52
2017-06-09T00:06:29.471Z,98.24
2017-06-09T00:07:29.459Z,98.34
2017-06-09T00:08:29.130Z,98.24
2017-06-09T00:09:29.418Z,98.34
2017-06-09T00:10:29.401Z,98.05
2017-06-09T00:11:29.382Z,97.67
2017-06-09T00:12:29.397Z,97.67
2017-06-09T00:13:29.062Z,97.96
2017-06-09T00:14:29.042Z,97.57
2017-06-09T00:15:29.337Z,97.76
2017-06-09T00:16:29.320Z,97.47
2017-06-09T00:17:29.298Z,98.53
2017-06-09T00:18:29.293Z,98.53
2017-06-09T00:19:29.266Z,98.14
2017-06-09T00:20:28.941Z,98.24
2017-06-09T00:21:29.235Z,98.34
2017-06-09T00:22:29.224Z,98.53
2017-06-09T00:23:29.213Z,98.34
2017-06-09T00:24:29.190Z,98.34
2017-06-09T00:25:29.174Z,98.14
2017-06-09T00:26:28.855Z,98.05
2017-06-09T00:27:28.840Z,98.24
2017-06-09T00:28:28.825Z,98.24
2017-06-09T00:29:29.167Z,98.05
2017-06-09T00:30:29.096Z,98.29
2017-06-09T00:31:29.080Z,98.68
2017-06-09T00:32:29.068Z,98.58
2017-06-09T00:33:29.054Z,98.63
2017-06-09T00:34:28.733Z,98.44
2017-06-09T00:35:29.031Z,98.48
2017-06-09T00:36:29.002Z,98.19
2017-06-09T00:37:28.679Z,98.63
2017-06-09T00:38:28.747Z,98.48
2017-06-09T00:39:28.959Z,98.34
2017-06-09T00:40:28.946Z,98.53
2017-06-09T00:41:28.936Z,98.82
2017-06-09T00:42:28.912Z,98.53
2017-06-09T00:43:28.891Z,98.68
2017-06-09T00:44:28.880Z,98.48
2017-06-09T00:45:28.861Z,98.96
2017-06-09T00:46:28.852Z,99.06
2017-06-09T00:47:28.829Z,99.44
2017-06-09T00:48:28.835Z,99.35
2017-06-09T00:49:28.802Z,99.35
2017-06-09T00:50:28.791Z,99.44
2017-06-09T00:51:28.842Z,99.35
2017-06-09T00:52:28.753Z,98.96
2017-06-09T00:53:28.736Z,99.06
2017-06-09T00:54:28.422Z,99.44
2017-06-09T00:55:28.708Z,99.83
2017-06-09T00:56:28.542Z,99.83
2017-06-09T00:57:28.679Z,99.63
2017-06-09T00:58:28.664Z,99.99
2017-06-09T00:59:28.653Z,99.99
2017-06-09T01:00:28.641Z,99.99
2017-06-09T01:01:28.630Z,99.99
2017-06-09T01:02:28.608Z,99.99
2017-06-09T01:03:28.579Z,99.99
2017-06-09T01:04:28.335Z,99.99
2017-06-09T01:05:28.551Z,99.99
2017-06-09T01:06:28.543Z,99.99
2017-06-09T01:07:28.518Z,99.99
2017-06-09T01:08:28.613Z,99.99
2017-06-09T01:09:28.489Z,99.99
2017-06-09T01:10:28.471Z,99.99
2017-06-09T01:11:28.157Z,99.99
2017-06-09T01:12:28.140Z,99.99
2017-06-09T01:13:28.423Z,99.99
2017-06-09T01:14:28.103Z,99.99
2017-06-09T01:15:28.131Z,99.99
2017-06-09T01:16:28.075Z,99.99
2017-06-09T01:17:28.361Z,99.99
2017-06-09T01:18:28.351Z,99.99
2017-06-09T01:19:28.431Z,99.99
2017-06-09T01:20:28.011Z,99.99
2017-06-09T01:21:28.300Z,99.99
2017-06-09T01:22:28.282Z,99.99
2017-06-09T01:23:27.961Z,99.99
2017-06-09T01:24:28.252Z,99.99
2017-06-09T01:25:27.920Z,99.99
2017-06-09T01:26:28.213Z,99.99
2017-06-09T01:27:27.891Z,99.99
2017-06-09T01:28:27.890Z,99.99
2017-06-09T01:29:27.870Z,99.99
2017-06-09T01:30:27.852Z,99.99
2017-06-09T01:31:27.831Z,99.99
2017-06-09T01:32:28.134Z,99.99
2017-06-09T01:33:27.811Z,99.99
2017-06-09T01:34:28.084Z,99.99
2017-06-09T01:35:28.073Z,99.99
2017-06-09T01:36:28.060Z,99.99
2017-06-09T01:37:28.045Z,99.99
2017-06-09T01:38:28.030Z,99.99
2017-06-09T01:39:28.033Z,99.99
2017-06-09T01:40:27.990Z,99.99
2017-06-09T01:41:27.995Z,99.99
2017-06-09T01:42:27.971Z,99.99
2017-06-09T01:43:27.989Z,99.99
2017-06-09T01:44:27.626Z,99.99
2017-06-09T01:45:27.923Z,99.99
2017-06-09T01:46:27.901Z,99.99
2017-06-09T01:47:27.897Z,99.99
2017-06-09T01:48:27.872Z,99.99
2017-06-09T01:49:27.561Z,99.99
2017-06-09T01:50:27.545Z,99.99
2017-06-09T01:51:27.521Z,99.99
2017-06-09T01:52:27.822Z,99.99
2017-06-09T01:53:27.792Z,99.99
2017-06-09T01:54:27.474Z,99.99
2017-06-09T01:55:27.450Z,99.99
2017-06-09T01:56:27.740Z,99.99
2017-06-09T01:57:27.433Z,99.99
2017-06-09T01:58:27.721Z,99.99
2017-06-09T01:59:27.387Z,99.99
2017-06-09T02:00:27.674Z,99.99
2017-06-09T02:01:27.672Z,99.99
2017-06-09T02:02:27.651Z,99.99
2017-06-09T02:03:27.642Z,99.99
2017-06-09T02:04:27.314Z,99.99
2017-06-09T02:05:27.301Z,99.99
2017-06-09T02:06:27.582Z,99.99
2017-06-09T02:07:27.262Z,99.99
2017-06-09T02:08:27.550Z,99.99
2017-06-09T02:09:27.226Z,99.99
2017-06-09T02:10:27.522Z,99.99
2017-06-09T02:11:27.192Z,99.99
2017-06-09T02:12:27.486Z,99.99
2017-06-09T02:13:27.472Z,99.99
2017-06-09T02:14:27.455Z,99.99
2017-06-09T02:15:27.448Z,99.99
2017-06-09T02:16:27.114Z,99.99
2017-06-09T02:17:27.423Z,99.99
2017-06-09T02:18:27.084Z,99.99
2017-06-09T02:19:27.393Z,99.99
2017-06-09T02:20:27.353Z,99.99
2017-06-09T02:21:27.343Z,99.99
2017-06-09T02:22:27.323Z,99.99
2017-06-09T02:23:27.302Z,99.99
2017-06-09T02:24:26.993Z,99.99
2017-06-09T02:25:27.280Z,99.99
2017-06-09T02:26:27.265Z,99.99
2017-06-09T02:27:27.262Z,99.99
2017-06-09T02:28:27.232Z,99.99
2017-06-09T02:29:27.224Z,99.99
2017-06-09T02:30:27.201Z,99.99
2017-06-09T02:31:27.183Z,99.99
2017-06-09T02:32:26.875Z,99.99
2017-06-09T02:33:27.154Z,99.99
2017-06-09T02:34:27.135Z,99.99
2017-06-09T02:35:26.815Z,99.99
2017-06-09T02:36:27.104Z,99.99
2017-06-09T02:37:26.780Z,99.99
2017-06-09T02:38:27.068Z,99.99
2017-06-09T02:39:27.063Z,99.99
2017-06-09T02:40:27.053Z,99.99
2017-06-09T02:41:26.774Z,99.99
2017-06-09T02:42:26.694Z,99.99
2017-06-09T02:43:26.994Z,99.99
2017-06-09T02:44:26.972Z,99.99
2017-06-09T02:45:26.663Z,99.99
2017-06-09T02:46:26.941Z,99.99
2017-06-09T02:47:26.621Z,99.99
2017-06-09T02:48:26.608Z,99.99
2017-06-09T02:49:26.897Z,99.99
2017-06-09T02:50:26.572Z,99.99
2017-06-09T02:51:26.873Z,99.99
2017-06-09T02:52:26.538Z,99.99
2017-06-09T02:53:26.821Z,99.99
2017-06-09T02:54:26.505Z,99.99
2017-06-09T02:55:26.795Z,99.99
2017-06-09T02:56:26.479Z,99.99
2017-06-09T02:57:26.761Z,99.99
2017-06-09T02:58:26.755Z,99.99
2017-06-09T02:59:26.732Z,99.99
2017-06-09T03:00:26.721Z,99.99
2017-06-09T03:01:26.704Z,99.99
2017-06-09T03:02:26.684Z,99.99
2017-06-09T03:03:26.672Z,99.99
2017-06-09T03:04:26.652Z,99.99
2017-06-09T03:05:26.342Z,99.99
2017-06-09T03:06:26.622Z,99.99
2017-06-09T03:07:26.346Z,99.99
2017-06-09T03:08:26.589Z,99.99
2017-06-09T03:09:26.582Z,99.99
2017-06-09T03:10:26.564Z,99.99
2017-06-09T03:11:26.586Z,99.99
2017-06-09T03:12:26.527Z,99.99
2017-06-09T03:13:26.514Z,99.99
2017-06-09T03:14:26.504Z,99.99
2017-06-09T03:15:26.474Z,99.99
2017-06-09T03:16:26.465Z,99.99
2017-06-09T03:17:26.244Z,99.99
2017-06-09T03:18:26.425Z,99.99
2017-06-09T03:19:26.412Z,99.99
2017-06-09T03:20:26.393Z,99.99
2017-06-09T03:21:26.074Z,99.99
2017-06-09T03:22:26.357Z,99.99
2017-06-09T03:23:26.039Z,99.99
2017-06-09T03:24:26.331Z,99.99
2017-06-09T03:25:26.007Z,99.99
2017-06-09T03:26:25.992Z,99.99
2017-06-09T03:27:26.292Z,99.99
2017-06-09T03:28:25.965Z,99.99
2017-06-09T03:29:25.938Z,99.99
2017-06-09T03:30:26.233Z,99.99
2017-06-09T03:31:26.218Z,99.99
2017-06-09T03:32:26.204Z,99.99
2017-06-09T03:33:26.184Z,99.99
2017-06-09T03:34:26.165Z,99.99
2017-06-09T03:35:25.844Z,99.99
2017-06-09T03:36:26.135Z,99.99
2017-06-09T03:37:26.120Z,99.99
2017-06-09T03:38:26.108Z,99.99
2017-06-09T03:39:26.082Z,99.99
2017-06-09T03:40:25.761Z,99.99
2017-06-09T03:41:26.055Z,99.99
2017-06-09T03:42:25.722Z,99.99
2017-06-09T03:43:26.082Z,99.99
2017-06-09T03:44:26.005Z,99.99
2017-06-09T03:45:25.981Z,99.99
2017-06-09T03:46:25.672Z,99.99
2017-06-09T03:47:25.951Z,99.99
2017-06-09T03:48:25.937Z,99.99
2017-06-09T03:49:25.924Z,99.99
2017-06-09T03:50:25.906Z,99.99
2017-06-09T03:51:25.590Z,99.99
2017-06-09T03:52:25.871Z,99.99
2017-06-09T03:53:25.879Z,99.99
2017-06-09T03:54:25.842Z,99.99
2017-06-09T03:55:25.511Z,99.99
2017-06-09T03:56:25.504Z,99.99
2017-06-09T03:57:25.792Z,99.99
2017-06-09T03:58:25.472Z,99.99
2017-06-09T03:59:25.763Z,99.99
2017-06-09T04:00:25.443Z,99.99
2017-06-09T04:01:25.429Z,99.99
2017-06-09T04:02:25.709Z,99.99
2017-06-09T04:03:25.399Z,99.99
2017-06-09T04:04:25.681Z,99.99
2017-06-09T04:05:25.360Z,99.99
2017-06-09T04:06:25.651Z,99.99
2017-06-09T04:07:25.328Z,99.99
2017-06-09T04:08:25.362Z,99.99
2017-06-09T04:09:25.620Z,99.99
2017-06-09T04:10:25.585Z,99.99
2017-06-09T04:11:25.592Z,99.99
2017-06-09T04:12:25.253Z,99.99
2017-06-09T04:13:25.541Z,99.99
2017-06-09T04:14:25.211Z,99.99
2017-06-09T04:15:25.528Z,99.99
2017-06-09T04:16:25.494Z,99.99
2017-06-09T04:17:25.497Z,99.99
2017-06-09T04:18:25.464Z,99.99
2017-06-09T04:19:25.454Z,99.99
2017-06-09T04:20:25.432Z,99.99
2017-06-09T04:21:25.455Z,99.99
2017-06-09T04:22:25.432Z,99.99
2017-06-09T04:23:25.434Z,99.99
2017-06-09T04:24:25.058Z,99.99
2017-06-09T04:25:25.051Z,99.99
2017-06-09T04:26:25.334Z,99.99
2017-06-09T04:27:25.372Z,99.99
2017-06-09T04:28:24.990Z,99.99
2017-06-09T04:29:25.014Z,99.99
2017-06-09T04:30:25.279Z,99.99
2017-06-09T04:31:25.262Z,99.99
2017-06-09T04:32:24.941Z,99.99
2017-06-09T04:33:25.224Z,99.99
2017-06-09T04:34:24.895Z,99.99
2017-06-09T04:35:25.198Z,99.99
2017-06-09T04:36:25.173Z,99.99
2017-06-09T04:37:25.162Z,99.99
2017-06-09T04:38:25.143Z,99.99
2017-06-09T04:39:25.184Z,99.78
2017-06-09T04:40:25.125Z,99.87
2017-06-09T04:41:25.091Z,99.87
2017-06-09T04:42:24.784Z,99.83
2017-06-09T04:43:24.763Z,99.99
2017-06-09T04:44:25.052Z,99.73
2017-06-09T04:45:25.045Z,99.4
2017-06-09T04:46:25.027Z,99.25
2017-06-09T04:47:25.001Z,99.2
2017-06-09T04:48:24.995Z,98.86
2017-06-09T04:49:24.981Z,99.35
2017-06-09T04:50:24.962Z,99.54
2017-06-09T04:51:24.630Z,99.25
2017-06-09T04:52:24.613Z,99.15
2017-06-09T04:53:24.911Z,99.25
2017-06-09T04:54:24.586Z,98.68
2017-06-09T04:55:24.883Z,98.91
2017-06-09T04:56:24.560Z,98.1
2017-06-09T04:57:24.541Z,98.1
2017-06-09T04:58:24.860Z,98.19
2017-06-09T04:59:24.822Z,98.29
2017-06-09T05:00:24.493Z,98.44
2017-06-09T05:01:24.840Z,98
2017-06-09T05:02:24.774Z,98.05
2017-06-09T05:03:24.760Z,98.29
2017-06-09T05:04:24.741Z,98
2017-06-09T05:05:24.728Z,98
2017-06-09T05:06:24.731Z,98.34
2017-06-09T05:07:24.700Z,98.24
2017-06-09T05:08:24.382Z,98.1
2017-06-09T05:09:24.352Z,98.14
2017-06-09T05:10:24.348Z,98
2017-06-09T05:11:24.682Z,97.67
2017-06-09T05:12:24.312Z,98.29
2017-06-09T05:13:24.591Z,97.42
2017-06-09T05:14:24.282Z,97.52
2017-06-09T05:15:24.567Z,98.1
2017-06-09T05:16:24.269Z,98
2017-06-09T05:17:24.535Z,98.24
2017-06-09T05:18:24.224Z,97.96
2017-06-09T05:19:24.524Z,97.81
2017-06-09T05:20:24.193Z,98.05
2017-06-09T05:21:24.481Z,98.05
2017-06-09T05:22:24.466Z,98.14
2017-06-09T05:23:24.470Z,97.76
2017-06-09T05:24:24.440Z,97.19
2017-06-09T05:25:24.420Z,96.9
2017-06-09T05:26:24.409Z,97.14
2017-06-09T05:27:24.401Z,96.85
2017-06-09T05:28:24.377Z,96.85
2017-06-09T05:29:24.052Z,97.04
2017-06-09T05:30:24.041Z,96.85
2017-06-09T05:31:24.343Z,96.56
2017-06-09T05:32:24.331Z,95.79
2017-06-09T05:33:24.301Z,95.79
2017-06-09T05:34:24.295Z,95.4
2017-06-09T05:35:24.274Z,96.37
2017-06-09T05:36:24.263Z,96.66
2017-06-09T05:37:23.936Z,96.66
2017-06-09T05:38:24.241Z,97.04
2017-06-09T05:39:23.923Z,95.12
2017-06-09T05:40:23.897Z,95.79
2017-06-09T05:41:23.887Z,96.08
2017-06-09T05:42:24.174Z,96.47
2017-06-09T05:43:24.149Z,97.04
2017-06-09T05:44:24.150Z,96.85
2017-06-09T05:45:23.829Z,97.04
2017-06-09T05:46:24.131Z,96.56
2017-06-09T05:47:24.101Z,96.37
2017-06-09T05:48:24.083Z,96.56
2017-06-09T05:49:24.072Z,96.27
2017-06-09T05:50:24.054Z,96.66
2017-06-09T05:51:24.041Z,96.75
2017-06-09T05:52:24.040Z,96.75
2017-06-09T05:53:23.702Z,96.47
2017-06-09T05:54:23.994Z,96.75
2017-06-09T05:55:23.978Z,96.56
2017-06-09T05:56:23.658Z,96.94
2017-06-09T05:57:23.644Z,96.94
2017-06-09T05:58:23.933Z,96.56
2017-06-09T05:59:23.921Z,96.61
2017-06-09T06:00:23.903Z,96.47
2017-06-09T06:01:23.586Z,96.22
2017-06-09T06:02:23.871Z,95.94
2017-06-09T06:03:23.869Z,95.94
2017-06-09T06:04:23.844Z,95.55
2017-06-09T06:05:23.891Z,95.55
2017-06-09T06:06:23.820Z,95.17
2017-06-09T06:07:23.496Z,95.17
2017-06-09T06:08:23.480Z,95.17
2017-06-09T06:09:23.795Z,95.45
2017-06-09T06:10:23.760Z,95.79
2017-06-09T06:11:23.760Z,96.08
2017-06-09T06:12:23.483Z,95.89
2017-06-09T06:13:23.719Z,95.4
2017-06-09T06:14:23.701Z,94.25
2017-06-09T06:15:23.701Z,94.25
2017-06-09T06:16:23.423Z,94.06
2017-06-09T06:17:23.678Z,94.44
2017-06-09T06:18:23.663Z,94.06
2017-06-09T06:19:23.641Z,93.19
2017-06-09T06:20:23.621Z,93.96
2017-06-09T06:21:23.617Z,93.57
2017-06-09T06:22:23.600Z,94.15
2017-06-09T06:23:23.270Z,93.09
2017-06-09T06:24:23.640Z,93.57
2017-06-09T06:25:23.551Z,93.77
2017-06-09T06:26:23.282Z,93.57
2017-06-09T06:27:23.218Z,93.87
2017-06-09T06:28:23.204Z,94.15
2017-06-09T06:29:23.488Z,94.54
2017-06-09T06:30:23.480Z,94.54
2017-06-09T06:31:23.510Z,93.96
2017-06-09T06:32:23.451Z,93.67
2017-06-09T06:33:23.442Z,94.34
2017-06-09T06:34:23.421Z,94.73
2017-06-09T06:35:23.110Z,94.06
2017-06-09T06:36:23.089Z,94.06
2017-06-09T06:37:23.077Z,94.2
2017-06-09T06:38:23.072Z,93.62
2017-06-09T06:39:23.083Z,93.81
2017-06-09T06:40:23.349Z,93.91
2017-06-09T06:41:23.333Z,94.01
2017-06-09T06:42:22.999Z,93.91
2017-06-09T06:43:23.320Z,94.01
2017-06-09T06:44:22.981Z,94.59
2017-06-09T06:45:22.968Z,94.01
2017-06-09T06:46:23.049Z,93.43
2017-06-09T06:47:22.934Z,93.43
2017-06-09T06:48:22.931Z,93.43
2017-06-09T06:49:22.920Z,93.62
2017-06-09T06:50:22.896Z,93.62
2017-06-09T06:51:23.190Z,93.62
2017-06-09T06:52:22.874Z,94.59
2017-06-09T06:53:22.861Z,94.97
2017-06-09T06:54:23.147Z,95.36
2017-06-09T06:55:23.161Z,94.68
2017-06-09T06:56:23.126Z,94.39
2017-06-09T06:57:23.113Z,94.59
2017-06-09T06:58:23.089Z,94.78
2017-06-09T06:59:23.082Z,95.16
2017-06-09T07:00:23.065Z,94.92
2017-06-09T07:01:23.050Z,95.02
2017-06-09T07:02:23.040Z,94.64
2017-06-09T07:03:23.029Z,95.12
2017-06-09T07:04:23.017Z,94.82
2017-06-09T07:05:23.010Z,94.82
2017-06-09T07:06:22.981Z,95.5
2017-06-09T07:07:22.989Z,94.64
2017-06-09T07:08:22.952Z,94.68
2017-06-09T07:09:22.950Z,94.68
2017-06-09T07:10:22.929Z,94.78
2017-06-09T07:11:22.608Z,94.29
2017-06-09T07:12:22.597Z,94.68
2017-06-09T07:13:22.598Z,95.16
2017-06-09T07:14:22.870Z,95.16
2017-06-09T07:15:22.893Z,94.87
2017-06-09T07:16:22.857Z,94.78
2017-06-09T07:17:22.834Z,94.1
2017-06-09T07:18:22.824Z,93.28
2017-06-09T07:19:22.921Z,93.38
2017-06-09T07:20:22.808Z,93.48
2017-06-09T07:21:22.782Z,92.03
2017-06-09T07:22:22.470Z,91.4
2017-06-09T07:23:22.760Z,91.11
2017-06-09T07:24:22.760Z,90.72
2017-06-09T07:25:22.432Z,91.02
2017-06-09T07:26:22.727Z,91.02
2017-06-09T07:27:22.702Z,91.06
2017-06-09T07:28:22.677Z,89.71
2017-06-09T07:29:22.462Z,90.15
2017-06-09T07:30:22.661Z,90.63
2017-06-09T07:31:22.644Z,90.48
2017-06-09T07:32:22.331Z,89.9
2017-06-09T07:33:22.622Z,89.51
2017-06-09T07:34:22.667Z,90.48
2017-06-09T07:35:22.600Z,89.51
2017-06-09T07:36:22.682Z,89.71
2017-06-09T07:37:22.291Z,89.71
2017-06-09T07:38:22.597Z,89.71
2017-06-09T07:39:22.564Z,89.61
2017-06-09T07:40:22.549Z,90.48
2017-06-09T07:41:22.211Z,90.38
2017-06-09T07:42:22.590Z,90.14
2017-06-09T07:43:22.192Z,89.51
2017-06-09T07:44:22.500Z,89.65
2017-06-09T07:45:22.481Z,89.85
2017-06-09T07:46:22.159Z,90.33
2017-06-09T07:47:22.140Z,90.14
2017-06-09T07:48:22.435Z,91.01
2017-06-09T07:49:22.433Z,91.2
2017-06-09T07:50:22.112Z,91.88
2017-06-09T07:51:22.416Z,91.11
2017-06-09T07:52:22.395Z,90.53
2017-06-09T07:53:22.069Z,89.75
2017-06-09T07:54:22.361Z,90.14
2017-06-09T07:55:22.040Z,89.51
2017-06-09T07:56:22.328Z,90
2017-06-09T07:57:22.337Z,89.61
2017-06-09T07:58:22.001Z,90.09
2017-06-09T07:59:21.990Z,89.47
2017-06-09T08:00:22.284Z,88.36
2017-06-09T08:01:22.271Z,88.26
2017-06-09T08:02:21.950Z,88.36
2017-06-09T08:03:22.244Z,88.26
2017-06-09T08:04:21.930Z,88.75
2017-06-09T08:05:22.220Z,88.55
2017-06-09T08:06:22.219Z,88.26
2017-06-09T08:07:21.892Z,88.26
2017-06-09T08:08:22.196Z,88.26
2017-06-09T08:09:22.173Z,88.55
2017-06-09T08:10:21.859Z,88.75
2017-06-09T08:11:22.146Z,88.99
2017-06-09T08:12:22.130Z,89.18
2017-06-09T08:13:22.118Z,89.18
2017-06-09T08:14:21.804Z,89.42
2017-06-09T08:15:22.090Z,90.34
2017-06-09T08:16:22.086Z,89.67
2017-06-09T08:17:21.772Z,90.19
2017-06-09T08:18:21.746Z,90.29
2017-06-09T08:19:22.077Z,90.19
2017-06-09T08:20:22.040Z,89.51
2017-06-09T08:21:22.029Z,89.51
2017-06-09T08:22:21.697Z,90.09
2017-06-09T08:23:22.033Z,89.81
2017-06-09T08:24:21.664Z,88.31
2017-06-09T08:25:21.664Z,86.18
2017-06-09T08:26:21.944Z,85.99
2017-06-09T08:27:21.979Z,85.31
2017-06-09T08:28:21.939Z,86.08
2017-06-09T08:29:21.930Z,85.99
2017-06-09T08:30:21.896Z,85.7
2017-06-09T08:31:21.590Z,85.02
2017-06-09T08:32:21.895Z,85.12
2017-06-09T08:33:21.872Z,85.41
2017-06-09T08:34:21.856Z,85.8
2017-06-09T08:35:21.858Z,86.38
2017-06-09T08:36:21.836Z,86.38
2017-06-09T08:37:21.836Z,86.47
2017-06-09T08:38:21.812Z,86.18
2017-06-09T08:39:21.795Z,86.52
2017-06-09T08:40:21.522Z,86.71
2017-06-09T08:41:21.781Z,86.86
2017-06-09T08:42:21.807Z,86.96
2017-06-09T08:43:21.749Z,86.47
2017-06-09T08:44:21.750Z,86.86
2017-06-09T08:45:21.727Z,87
2017-06-09T08:46:21.501Z,86.9
2017-06-09T08:47:21.692Z,86.47
2017-06-09T08:48:21.794Z,86.8
2017-06-09T08:49:21.678Z,86.86
2017-06-09T08:50:21.712Z,86.8
2017-06-09T08:51:21.654Z,87
2017-06-09T08:52:21.752Z,86.9
2017-06-09T08:53:21.623Z,87.09
2017-06-09T08:54:21.621Z,87.38
2017-06-09T08:55:21.599Z,87.48
2017-06-09T08:56:21.590Z,87.67
2017-06-09T08:57:21.588Z,88.06
2017-06-09T08:58:21.615Z,88.15
2017-06-09T08:59:21.555Z,88.4
2017-06-09T09:00:21.231Z,88.59
2017-06-09T09:01:21.218Z,88.4
2017-06-09T09:02:21.532Z,89.12
2017-06-09T09:03:21.513Z,89.12
2017-06-09T09:04:21.198Z,89.37
2017-06-09T09:05:21.522Z,89.47
2017-06-09T09:06:21.479Z,89.17
2017-06-09T09:07:21.457Z,89.27
2017-06-09T09:08:21.442Z,89.56
2017-06-09T09:09:21.469Z,89.95
2017-06-09T09:10:21.414Z,89.65
2017-06-09T09:11:21.411Z,90.43
2017-06-09T09:12:21.401Z,90.09
2017-06-09T09:13:21.067Z,90.62
2017-06-09T09:14:21.070Z,90.62
2017-06-09T09:15:21.359Z,90.48
2017-06-09T09:16:21.401Z,90.43
2017-06-09T09:17:21.353Z,90.53
2017-06-09T09:18:21.340Z,90.33
2017-06-09T09:19:21.018Z,90.53
2017-06-09T09:20:21.296Z,90.43
2017-06-09T09:21:21.295Z,89.65
2017-06-09T09:22:21.274Z,90.33
2017-06-09T09:23:21.265Z,90.14
2017-06-09T09:24:20.947Z,90.53
2017-06-09T09:25:21.252Z,90.53
2017-06-09T09:26:21.233Z,90.43
2017-06-09T09:27:20.911Z,90.81
2017-06-09T09:28:21.193Z,91.44
2017-06-09T09:29:20.931Z,91.54
2017-06-09T09:30:21.172Z,91.74
2017-06-09T09:31:21.163Z,91.74
2017-06-09T09:32:21.161Z,91.93
2017-06-09T09:33:20.843Z,92.12
2017-06-09T09:34:21.119Z,92.32
2017-06-09T09:35:21.124Z,92.8
2017-06-09T09:36:20.791Z,92.6
2017-06-09T09:37:21.079Z,92.41
2017-06-09T09:38:21.071Z,92.8
2017-06-09T09:39:20.772Z,92.8
2017-06-09T09:40:21.039Z,92.6
2017-06-09T09:41:21.157Z,92.89
2017-06-09T09:42:20.723Z,93.37
2017-06-09T09:43:20.719Z,92.99
2017-06-09T09:44:21.018Z,93.28
2017-06-09T09:45:20.710Z,93.57
2017-06-09T09:46:20.665Z,93.85
2017-06-09T09:47:20.959Z,93.85
2017-06-09T09:48:20.954Z,93.95
2017-06-09T09:49:20.935Z,94.34
2017-06-09T09:50:20.953Z,94.43
2017-06-09T09:51:20.960Z,94.53
2017-06-09T09:52:20.591Z,94.87
2017-06-09T09:53:20.584Z,94.78
2017-06-09T09:54:20.916Z,94.87
2017-06-09T09:55:20.857Z,94.92
2017-06-09T09:56:20.858Z,95.36
2017-06-09T09:57:20.527Z,95.11
2017-06-09T09:58:20.830Z,94.92
2017-06-09T09:59:20.807Z,94.73
2017-06-09T10:00:20.841Z,95.06
2017-06-09T10:01:20.791Z,95.16
2017-06-09T10:02:20.831Z,95.64
2017-06-09T10:03:20.449Z,95.64
2017-06-09T10:04:20.483Z,95.93
2017-06-09T10:05:20.734Z,96.03
2017-06-09T10:06:20.758Z,95.74
2017-06-09T10:07:20.702Z,95.84
2017-06-09T10:08:20.700Z,95.84
2017-06-09T10:09:20.381Z,96.03
2017-06-09T10:10:20.371Z,97.19
2017-06-09T10:11:20.647Z,97.09
2017-06-09T10:12:20.649Z,97.38
2017-06-09T10:13:20.330Z,98.73
2017-06-09T10:14:20.621Z,99.02
2017-06-09T10:15:20.608Z,98.92
2017-06-09T10:16:20.592Z,98.34
2017-06-09T10:17:20.589Z,97.86
2017-06-09T10:18:20.250Z,98.87
2017-06-09T10:19:20.560Z,99.45
2017-06-09T10:20:20.544Z,99.64
2017-06-09T10:21:20.213Z,99.74
2017-06-09T10:22:20.211Z,99.99
2017-06-09T10:23:20.210Z,99.99
2017-06-09T10:24:20.480Z,99.99
2017-06-09T10:25:20.172Z,99.99
2017-06-09T10:26:20.470Z,99.99
2017-06-09T10:27:20.132Z,99.99
2017-06-09T10:28:20.127Z,99.99
2017-06-09T10:29:20.111Z,99.99
2017-06-09T10:30:20.413Z,99.99
2017-06-09T10:31:20.395Z,99.99
2017-06-09T10:32:20.371Z,99.99
2017-06-09T10:33:20.054Z,99.99
2017-06-09T10:34:20.350Z,99.99
2017-06-09T10:35:20.342Z,99.99
2017-06-09T10:36:20.323Z,99.99
2017-06-09T10:37:20.561Z,99.99
2017-06-09T10:38:20.295Z,99.99
2017-06-09T10:39:19.971Z,99.99
2017-06-09T10:40:20.282Z,99.99
2017-06-09T10:41:19.952Z,99.99
2017-06-09T10:42:20.240Z,99.99
2017-06-09T10:43:19.930Z,99.99
2017-06-09T10:44:20.224Z,99.99
2017-06-09T10:45:20.203Z,99.99
2017-06-09T10:46:19.889Z,99.99
2017-06-09T10:47:19.870Z,99.99
2017-06-09T10:48:20.163Z,99.99
2017-06-09T10:49:20.160Z,99.99
2017-06-09T10:50:20.151Z,99.99
2017-06-09T10:51:19.811Z,99.99
2017-06-09T10:52:19.802Z,99.99
2017-06-09T10:53:20.092Z,99.99
2017-06-09T10:54:20.070Z,99.99
2017-06-09T10:55:19.751Z,99.99
2017-06-09T10:56:20.039Z,99.99
2017-06-09T10:57:20.030Z,99.99
2017-06-09T10:58:19.708Z,99.99
2017-06-09T10:59:19.693Z,99.99
2017-06-09T11:00:19.701Z,99.99
2017-06-09T11:01:19.668Z,99.99
2017-06-09T11:02:19.961Z,99.99
2017-06-09T11:03:19.972Z,99.99
2017-06-09T11:04:19.949Z,99.99
2017-06-09T11:05:19.927Z,99.99
2017-06-09T11:06:19.972Z,99.99
2017-06-09T11:07:19.890Z,99.99
2017-06-09T11:08:19.950Z,99.99
2017-06-09T11:09:19.868Z,99.99
2017-06-09T11:10:19.843Z,99.99
2017-06-09T11:11:19.534Z,99.99
2017-06-09T11:12:19.519Z,99.99
2017-06-09T11:13:19.811Z,99.99
2017-06-09T11:14:19.799Z,99.99
2017-06-09T11:15:19.782Z,99.99
2017-06-09T11:16:19.805Z,99.99
2017-06-09T11:17:19.439Z,99.99
2017-06-09T11:18:19.727Z,99.99
2017-06-09T11:19:19.711Z,99.99
2017-06-09T11:20:19.507Z,99.99
2017-06-09T11:21:19.681Z,99.99
2017-06-09T11:22:19.443Z,99.99
2017-06-09T11:23:19.666Z,99.99
2017-06-09T11:24:19.710Z,99.99
2017-06-09T11:25:19.681Z,99.99
2017-06-09T11:26:19.672Z,99.99
2017-06-09T11:27:19.654Z,99.99
2017-06-09T11:28:19.375Z,99.99
2017-06-09T11:29:19.581Z,99.99
2017-06-09T11:30:19.590Z,99.99
2017-06-09T11:31:19.540Z,99.99
2017-06-09T11:32:19.211Z,99.99
2017-06-09T11:33:19.508Z,99.99
2017-06-09T11:34:19.493Z,99.99
2017-06-09T11:35:19.498Z,99.99
2017-06-09T11:36:19.481Z,99.99
2017-06-09T11:37:19.510Z,99.99
2017-06-09T11:38:19.459Z,99.99
2017-06-09T11:39:19.432Z,99.99
2017-06-09T11:40:19.467Z,99.99
2017-06-09T11:41:19.392Z,99.99
2017-06-09T11:42:19.430Z,99.99
2017-06-09T11:43:19.421Z,99.99
2017-06-09T11:44:19.359Z,99.99
2017-06-09T11:45:19.342Z,99.99
2017-06-09T11:46:19.314Z,99.99
2017-06-09T11:47:19.306Z,99.99
2017-06-09T11:48:19.295Z,99.99
2017-06-09T11:49:19.273Z,99.99
2017-06-09T11:50:19.272Z,99.99
2017-06-09T11:51:19.287Z,99.99
2017-06-09T11:52:19.240Z,99.99
2017-06-09T11:53:19.222Z,99.99
2017-06-09T11:54:19.199Z,99.99
2017-06-09T11:55:19.185Z,99.99
2017-06-09T11:56:19.170Z,99.99
2017-06-09T11:57:19.163Z,99.99
2017-06-09T11:58:18.831Z,99.99
2017-06-09T11:59:19.141Z,99.99
2017-06-09T12:00:19.114Z,99.99
2017-06-09T12:01:19.105Z,99.99
2017-06-09T12:02:19.081Z,99.99
2017-06-09T12:03:19.072Z,99.99
2017-06-09T12:04:18.762Z,99.99
2017-06-09T12:05:19.035Z,99.99
2017-06-09T12:06:18.722Z,99.99
2017-06-09T12:07:18.702Z,99.99
2017-06-09T12:08:18.989Z,99.99
2017-06-09T12:09:18.994Z,99.99
2017-06-09T12:10:18.972Z,99.99
2017-06-09T12:11:18.955Z,99.99
2017-06-09T12:12:18.946Z,99.99
2017-06-09T12:13:18.925Z,99.99
2017-06-09T12:14:18.603Z,99.99
2017-06-09T12:15:18.892Z,99.99
2017-06-09T12:16:18.883Z,99.99
2017-06-09T12:17:18.862Z,99.99
2017-06-09T12:18:18.851Z,99.99
2017-06-09T12:19:18.848Z,99.99
2017-06-09T12:20:18.825Z,99.99
2017-06-09T12:21:18.823Z,99.99
2017-06-09T12:22:18.806Z,99.99
2017-06-09T12:23:18.778Z,99.99
2017-06-09T12:24:18.762Z,99.99
2017-06-09T12:25:18.752Z,99.99
2017-06-09T12:26:18.735Z,99.99
2017-06-09T12:27:18.421Z,99.99
2017-06-09T12:28:18.701Z,99.99
2017-06-09T12:29:18.691Z,99.99
2017-06-09T12:30:18.669Z,99.99
2017-06-09T12:31:18.358Z,99.99
2017-06-09T12:32:18.347Z,99.99
2017-06-09T12:33:18.331Z,99.99
2017-06-09T12:34:18.635Z,99.99
2017-06-09T12:35:18.315Z,99.99
2017-06-09T12:36:18.593Z,99.99
2017-06-09T12:37:18.580Z,99.99
2017-06-09T12:38:18.559Z,99.99
2017-06-09T12:39:18.560Z,99.99
2017-06-09T12:40:18.542Z,99.99
2017-06-09T12:41:18.529Z,99.99
2017-06-09T12:42:18.515Z,99.99
2017-06-09T12:43:18.202Z,99.99
2017-06-09T12:44:18.186Z,99.99
2017-06-09T12:45:18.469Z,99.99
2017-06-09T12:46:18.154Z,99.99
2017-06-09T12:47:18.452Z,99.99
2017-06-09T12:48:18.433Z,99.99
2017-06-09T12:49:18.431Z,99.99
2017-06-09T12:50:18.412Z,99.99
2017-06-09T12:51:18.083Z,99.99
2017-06-09T12:52:18.391Z,99.99
2017-06-09T12:53:18.373Z,99.99
2017-06-09T12:54:18.353Z,99.99